Time;durP1;ratioP1;P1;durP2;ratioP2;P2;SDS_P1;SDS_P2;PMS_P1;PMS_P2;Temp;Humidity;BMP_temperature;BMP_pressure;BME280_temperature;BME280_humidity;BME280_pressure;Samples;Min_cycle;Max_cycle;Signal;HPM_P1;HPM_P2
2022/04/22 00:00:33;;;;;;;9.70;7.90;;;;;;;-0.09;75.35;95303.00;1792419;80;21001;-69
2022/04/22 00:03:02;;;;;;;9.73;7.77;;;;;;;0.01;75.53;95296.69;1792399;80;20989;-70
2022/04/22 00:05:30;;;;;;;9.07;7.27;;;;;;;0.02;75.19;95297.98;1792867;80;20982;-70
2022/04/22 00:07:57;;;;;;;8.27;6.20;;;;;;;0.05;74.89;95297.16;1792453;80;21045;-69
2022/04/22 00:10:23;;;;;;;7.77;5.83;;;;;;;0.02;74.73;95293.23;1792790;80;21478;-69
2022/04/22 00:12:50;;;;;;;8.17;7.27;;;;;;;-0.05;76.22;95298.73;1792741;80;21855;-70
2022/04/22 00:15:16;;;;;;;12.27;9.33;;;;;;;-0.07;75.87;95298.72;1792575;80;20988;-70
2022/04/22 00:17:44;;;;;;;11.70;8.73;;;;;;;-0.05;76.75;95293.53;1792560;80;21533;-70
2022/04/22 00:20:12;;;;;;;10.70;8.30;;;;;;;0.01;76.61;95292.36;1792941;80;21048;-70
2022/04/22 00:22:40;;;;;;;12.27;9.73;;;;;;;-0.04;75.87;95296.17;1792664;80;20974;-70
2022/04/22 00:25:10;;;;;;;11.97;8.80;;;;;;;-0.11;75.69;95291.72;1792618;80;21515;-70
2022/04/22 00:27:38;;;;;;;10.37;7.20;;;;;;;-0.16;75.64;95286.88;1792640;80;21001;-70
2022/04/22 00:30:07;;;;;;;7.60;6.30;;;;;;;-0.07;75.56;95281.86;1797863;80;21017;-70
2022/04/22 00:32:34;;;;;;;10.70;8.20;;;;;;;0.02;75.27;95283.72;1801022;80;21035;-70
2022/04/22 00:35:03;;;;;;;8.13;6.30;;;;;;;0.10;75.35;95272.17;1800857;80;21021;-70
2022/04/22 00:37:30;;;;;;;7.83;7.00;;;;;;;0.12;75.37;95273.08;1801109;80;21008;-70
2022/04/22 00:39:57;;;;;;;12.70;8.50;;;;;;;0.18;75.00;95274.06;1801013;80;20988;-70
2022/04/22 00:42:26;;;;;;;15.53;9.20;;;;;;;0.02;75.79;95275.94;1800690;80;21009;-70
2022/04/22 00:44:51;;;;;;;7.80;6.20;;;;;;;-0.05;75.88;95271.09;1801057;80;21049;-70
2022/04/22 00:47:18;;;;;;;9.47;7.30;;;;;;;-0.03;75.52;95271.97;1801136;80;20996;-70
2022/04/22 00:49:44;;;;;;;7.53;6.00;;;;;;;0.03;75.64;95269.06;1800993;80;20964;-70
2022/04/22 00:52:11;;;;;;;9.23;6.27;;;;;;;0.02;76.08;95266.86;1801078;80;20997;-70
2022/04/22 00:54:38;;;;;;;6.97;6.10;;;;;;;0.00;75.61;95273.77;1801092;80;20977;-70
2022/04/22 00:57:06;;;;;;;9.90;6.90;;;;;;;0.02;76.10;95272.48;1800632;80;20974;-69
2022/04/22 00:59:33;;;;;;;7.80;6.50;;;;;;;-0.02;77.29;95265.09;1800938;80;21020;-69
2022/04/22 01:01:59;;;;;;;8.37;6.13;;;;;;;0.04;76.65;95259.98;1800835;80;21467;-70
2022/04/22 01:09:57;;;;;;;9.63;6.30;;;;;;;0.08;76.48;95247.95;1801090;80;21483;-69
2022/04/22 01:12:28;;;;;;;9.07;6.10;;;;;;;0.11;77.14;95236.33;1800725;80;21005;-70
2022/04/22 01:14:55;;;;;;;10.40;6.07;;;;;;;0.13;76.33;95238.09;1801540;80;20980;-70
2022/04/22 01:17:21;;;;;;;8.23;7.37;;;;;;;0.17;76.35;95232.52;1801066;80;20985;-70
2022/04/22 01:19:48;;;;;;;10.43;7.30;;;;;;;0.12;76.52;95232.87;1800664;80;21487;-70
2022/04/22 01:22:16;;;;;;;7.03;5.80;;;;;;;0.14;76.35;95236.37;1801085;80;21459;-70
2022/04/22 01:24:43;;;;;;;7.90;6.43;;;;;;;0.18;75.83;95232.55;1801004;80;21487;-70
2022/04/22 01:27:10;;;;;;;11.40;7.10;;;;;;;0.11;77.01;95227.25;1801267;80;20985;-70
2022/04/22 01:29:37;;;;;;;12.67;9.70;;;;;;;0.13;76.64;95231.61;1797659;80;21563;-70
2022/04/22 01:32:05;;;;;;;11.37;8.40;;;;;;;0.17;76.72;95224.73;1792702;80;20961;-70
2022/04/22 01:34:33;;;;;;;7.80;5.43;;;;;;;0.20;76.71;95224.77;1792757;80;21013;-70
2022/04/22 01:36:59;;;;;;;7.93;6.40;;;;;;;0.22;75.89;95223.08;1792365;80;20997;-70
2022/04/22 01:39:29;;;;;;;9.07;8.07;;;;;;;0.12;77.22;95219.47;1792567;80;21033;-70
2022/04/22 01:41:55;;;;;;;9.03;7.70;;;;;;;0.09;77.15;95221.16;1792691;80;20996;-69
2022/04/22 01:44:22;;;;;;;11.47;6.03;;;;;;;0.02;77.17;95211.09;1792584;80;21017;-69
2022/04/22 01:46:48;;;;;;;9.93;6.73;;;;;;;0.06;76.62;95216.80;1792462;80;20990;-69
2022/04/22 01:49:15;;;;;;;10.13;7.80;;;;;;;0.13;76.70;95213.45;1793000;80;20981;-70
2022/04/22 01:51:42;;;;;;;10.57;6.87;;;;;;;0.18;77.24;95210.93;1792532;80;21005;-69
2022/04/22 01:54:08;;;;;;;8.57;5.73;;;;;;;0.22;76.87;95203.62;1792423;80;21514;-69
2022/04/22 01:56:35;;;;;;;10.60;7.87;;;;;;;0.30;76.57;95210.22;1792536;80;21077;-70
2022/04/22 01:59:01;;;;;;;9.30;7.10;;;;;;;0.27;76.89;95208.45;1792657;80;21048;-70
2022/04/22 02:01:28;;;;;;;9.43;6.97;;;;;;;0.31;76.52;95201.60;1792588;80;20997;-70
2022/04/22 02:03:54;;;;;;;7.63;6.47;;;;;;;0.36;76.29;95198.21;1792662;80;20981;-70
2022/04/22 02:06:21;;;;;;;9.10;7.40;;;;;;;0.42;76.04;95202.18;1792589;80;21451;-70
2022/04/22 02:08:47;;;;;;;10.27;7.37;;;;;;;0.45;75.81;95197.45;1792744;80;21056;-70
2022/04/22 02:11:14;;;;;;;7.10;5.43;;;;;;;0.48;75.99;95193.63;1792885;80;20993;-70
2022/04/22 02:13:41;;;;;;;6.30;5.30;;;;;;;0.54;75.97;95191.09;1792351;80;21037;-70
2022/04/22 02:16:09;;;;;;;7.93;6.00;;;;;;;0.51;75.33;95183.71;1792739;80;20993;-70
2022/04/22 02:18:39;;;;;;;7.90;6.57;;;;;;;0.48;75.51;95176.75;1792811;80;20989;-70
2022/04/22 02:21:07;;;;;;;10.20;6.53;;;;;;;0.48;76.25;95161.19;1792597;80;20969;-70
2022/04/22 02:23:34;;;;;;;18.73;11.60;;;;;;;0.41;76.30;95162.81;1792596;80;21024;-70
2022/04/22 02:26:01;;;;;;;24.43;14.63;;;;;;;0.38;75.82;95161.91;1793061;80;21044;-70
2022/04/22 02:28:33;;;;;;;11.73;7.40;;;;;;;0.36;75.59;95158.42;1792619;80;21002;-70
2022/04/22 02:31:09;;;;;;;6.65;5.12;;;;;;;0.28;75.48;95146.64;1788217;80;20997;-70
2022/04/22 02:33:38;;;;;;;8.50;6.50;;;;;;;0.32;76.18;95151.00;1787195;80;21009;-69
2022/04/22 02:36:07;;;;;;;11.00;8.53;;;;;;;0.45;76.60;95150.73;1787168;80;21025;-69
2022/04/22 02:38:34;;;;;;;12.77;9.53;;;;;;;0.54;76.68;95152.59;1787336;80;20978;-70
2022/04/22 02:46:31;;;;;;;9.87;7.03;;;;;;;0.57;75.92;95138.34;1787131;80;21009;-70
2022/04/22 02:49:00;;;;;;;8.17;6.33;;;;;;;0.54;75.91;95158.66;1787151;80;20994;-70
2022/04/22 02:51:28;;;;;;;8.43;6.70;;;;;;;0.47;75.20;95163.31;1787214;80;21447;-70
2022/04/22 02:53:55;;;;;;;7.10;6.27;;;;;;;0.50;75.57;95171.56;1787247;80;20993;-70
2022/04/22 02:56:23;;;;;;;12.60;7.17;;;;;;;0.46;75.32;95175.86;1786948;80;21543;-70
2022/04/22 02:58:50;;;;;;;15.23;9.83;;;;;;;0.33;77.40;95176.55;1787212;80;21013;-70
2022/04/22 03:01:17;;;;;;;11.93;8.50;;;;;;;0.19;77.84;95172.02;1786974;80;21005;-70
2022/04/22 03:03:44;;;;;;;8.70;7.63;;;;;;;0.24;77.80;95169.49;1787054;80;21476;-70
2022/04/22 03:06:11;;;;;;;9.03;7.30;;;;;;;0.28;78.10;95168.70;1787258;80;21479;-70
2022/04/22 03:08:37;;;;;;;6.93;5.47;;;;;;;0.33;77.22;95162.28;1787311;80;20956;-70
2022/04/22 03:11:04;;;;;;;21.93;10.43;;;;;;;0.43;76.94;95158.52;1786894;80;20970;-70
2022/04/22 03:13:31;;;;;;;9.47;6.77;;;;;;;0.46;76.97;95153.80;1787108;80;21001;-70
2022/04/22 03:16:00;;;;;;;31.73;14.47;;;;;;;0.53;76.61;95160.81;1787360;80;20978;-69
2022/04/22 03:18:27;;;;;;;9.10;6.43;;;;;;;0.49;76.45;95155.56;1754630;80;21069;-69
2022/04/22 03:20:55;;;;;;;42.93;16.93;;;;;;;0.49;76.21;95161.62;1787269;80;21005;-69
2022/04/22 03:23:21;;;;;;;19.87;10.70;;;;;;;0.37;77.75;95166.64;1786695;80;21017;-69
2022/04/22 03:25:47;;;;;;;10.90;7.83;;;;;;;0.35;76.63;95170.53;1787453;80;21005;-69
2022/04/22 03:28:15;;;;;;;33.40;15.43;;;;;;;0.39;77.17;95180.08;1787299;80;21037;-70
2022/04/22 03:30:42;;;;;;;27.67;13.80;;;;;;;0.46;77.01;95180.19;1794633;80;21005;-69
2022/04/22 03:33:08;;;;;;;23.93;13.03;;;;;;;0.43;77.03;95179.28;1801177;80;20992;-70
2022/04/22 03:35:35;;;;;;;21.33;10.50;;;;;;;0.42;77.16;95172.33;1801483;80;21000;-70
2022/04/22 03:38:01;;;;;;;15.30;9.93;;;;;;;0.45;77.01;95166.31;1801144;80;21039;-70
2022/04/22 03:40:28;;;;;;;15.93;9.00;;;;;;;0.48;76.92;95159.89;1801142;80;20992;-70
2022/04/22 03:42:54;;;;;;;9.83;6.33;;;;;;;0.53;77.74;95161.22;1801146;80;21032;-70
2022/04/22 03:45:22;;;;;;;14.60;8.60;;;;;;;0.54;77.37;95154.76;1800873;80;21059;-70
2022/04/22 03:47:49;;;;;;;16.00;9.27;;;;;;;0.61;77.32;95146.20;1801031;80;21463;-70
2022/04/22 03:50:16;;;;;;;21.67;11.03;;;;;;;0.71;77.74;95141.99;1801152;80;21542;-70
2022/04/22 03:52:42;;;;;;;7.70;5.80;;;;;;;0.74;78.16;95147.22;1800809;80;20973;-70
2022/04/22 03:55:09;;;;;;;7.73;5.67;;;;;;;0.89;77.68;95149.12;1800995;80;21547;-70
2022/04/22 04:00:21;;;;;;;22.00;12.63;;;;;;;1.05;77.48;95148.86;1800925;80;21109;-70
2022/04/22 04:02:48;;;;;;;21.40;14.10;;;;;;;1.14;77.75;95141.60;1800929;80;20969;-70
2022/04/22 04:05:15;;;;;;;26.90;16.97;;;;;;;1.19;77.25;95130.39;1801167;80;21498;-69
2022/04/22 04:07:42;;;;;;;30.23;18.00;;;;;;;1.27;77.18;95116.17;1801074;80;21043;-69
2022/04/22 04:15:58;;;;;;;38.23;16.40;;;;;;;1.40;76.36;95119.75;1801163;80;20995;-68
2022/04/22 04:18:30;;;;;;;38.13;18.37;;;;;;;1.40;77.35;95123.65;1800926;80;21024;-69
2022/04/22 04:23:45;;;;;;;38.93;21.70;;;;;;;1.34;77.79;95121.01;1701116;84;21047;-70
2022/04/22 04:26:14;;;;;;;48.70;24.63;;;;;;;1.40;77.36;95115.41;1700948;84;21108;-70
2022/04/22 04:28:47;;;;;;;38.30;20.67;;;;;;;1.42;76.90;95117.61;1726152;81;21014;-70
2022/04/22 04:31:14;;;;;;;27.13;15.57;;;;;;;1.49;76.77;95112.05;1791490;80;21013;-70
2022/04/22 04:33:42;;;;;;;19.63;12.23;;;;;;;1.54;76.46;95106.85;1786898;80;21026;-70
2022/04/22 04:36:10;;;;;;;36.00;17.13;;;;;;;1.60;76.39;95107.78;1787117;80;21506;-70
2022/04/22 04:38:39;;;;;;;32.03;16.10;;;;;;;1.75;76.40;95104.88;1787187;80;21042;-70
2022/04/22 04:41:08;;;;;;;25.40;13.97;;;;;;;1.81;76.90;95087.56;1787025;80;21030;-69
2022/04/22 04:43:36;;;;;;;25.53;14.30;;;;;;;1.95;77.06;95082.46;1787176;80;20983;-69
2022/04/22 04:46:03;;;;;;;20.77;14.10;;;;;;;2.06;76.99;95079.91;1786704;80;21127;-69
2022/04/22 04:48:29;;;;;;;20.70;12.43;;;;;;;2.13;77.14;95087.77;1786964;80;21014;-69
2022/04/22 04:50:56;;;;;;;19.23;12.80;;;;;;;2.29;76.80;95086.14;1787212;80;20990;-69
2022/04/22 04:53:25;;;;;;;19.70;12.77;;;;;;;2.36;76.09;95094.39;1786792;80;21046;-69
2022/04/22 04:55:53;;;;;;;30.63;17.10;;;;;;;2.34;76.77;95105.25;1786960;80;21532;-69
2022/04/22 04:58:20;;;;;;;38.53;21.67;;;;;;;2.35;76.68;95106.98;1787093;80;21465;-70
2022/04/22 05:00:48;;;;;;;23.40;15.93;;;;;;;2.45;76.66;95102.69;1787086;80;21027;-70
2022/04/22 05:03:15;;;;;;;24.47;15.93;;;;;;;2.54;76.93;95099.25;1786820;80;20975;-69
2022/04/22 05:05:42;;;;;;;26.40;18.60;;;;;;;2.60;76.08;95093.64;1787147;80;21007;-70
2022/04/22 05:08:09;;;;;;;27.50;18.77;;;;;;;2.63;75.51;95083.67;1787097;80;20999;-70
2022/04/22 05:10:37;;;;;;;27.60;18.77;;;;;;;2.72;75.53;95076.30;1786833;80;21454;-70
2022/04/22 05:13:04;;;;;;;20.43;12.97;;;;;;;2.84;75.21;95091.11;1787157;80;20979;-70
2022/04/22 05:15:33;;;;;;;24.90;17.00;;;;;;;2.87;74.38;95091.98;1787153;80;21484;-70
2022/04/22 05:18:02;;;;;;;30.83;20.23;;;;;;;2.84;74.14;95085.46;1786941;80;20956;-70
2022/04/22 05:20:29;;;;;;;27.27;19.27;;;;;;;2.89;74.28;95078.97;1787073;80;21010;-70
2022/04/22 05:22:56;;;;;;;29.20;19.27;;;;;;;2.93;74.80;95065.95;1786733;80;21086;-70
2022/04/22 05:25:23;;;;;;;30.07;19.67;;;;;;;3.04;74.55;95076.39;1787046;80;21050;-70
2022/04/22 05:27:50;;;;;;;25.73;18.97;;;;;;;3.15;74.47;95073.39;1787031;80;21047;-69
2022/04/22 05:33:03;;;;;;;22.00;14.90;;;;;;;3.32;74.04;95059.48;1786822;80;21039;-69
2022/04/22 05:35:30;;;;;;;45.30;24.23;;;;;;;3.36;73.66;95059.94;1787046;80;21054;-69
2022/04/22 05:38:05;;;;;;;82.33;40.70;;;;;;;3.37;73.83;95061.66;1786671;80;21018;-69
2022/04/22 05:40:37;;;;;;;61.70;33.77;;;;;;;3.43;73.99;95050.81;1787121;80;21026;-69
2022/04/22 05:43:06;;;;;;;52.03;31.33;;;;;;;3.52;74.10;95049.92;1787336;80;21011;-69
2022/04/22 05:45:36;;;;;;;78.30;47.57;;;;;;;3.64;73.82;95060.80;1786996;80;21074;-69
2022/04/22 05:48:04;;;;;;;49.33;30.80;;;;;;;3.74;73.70;95061.66;1786799;80;20995;-70
2022/04/22 05:50:31;;;;;;;28.73;20.47;;;;;;;3.81;73.51;95051.66;1787110;80;21488;-70
2022/04/22 05:52:58;;;;;;;20.70;13.93;;;;;;;3.88;73.40;95063.80;1786934;80;21011;-70
2022/04/22 05:55:27;;;;;;;18.10;12.53;;;;;;;3.91;73.25;95065.12;1787074;80;20967;-70
2022/04/22 05:57:55;;;;;;;27.40;16.73;;;;;;;3.94;73.15;95067.73;1786899;80;21015;-69
2022/04/22 06:00:25;;;;;;;23.13;15.77;;;;;;;3.95;72.99;95075.98;1786978;80;21035;-70
2022/04/22 06:02:53;;;;;;;17.50;12.30;;;;;;;3.98;73.04;95072.50;1787035;80;21066;-70
2022/04/22 06:05:21;;;;;;;33.20;18.43;;;;;;;4.01;72.80;95068.60;1786959;80;21042;-70
2022/04/22 06:10:36;;;;;;;60.80;34.67;;;;;;;4.07;72.50;95073.80;1786747;80;21547;-69
2022/04/22 06:13:04;;;;;;;60.73;37.13;;;;;;;4.09;72.36;95072.05;1786838;80;21468;-70
2022/04/22 06:15:31;;;;;;;67.20;36.70;;;;;;;4.10;72.16;95077.25;1787014;80;21473;-69
2022/04/22 06:17:59;;;;;;;78.27;37.70;;;;;;;4.07;72.58;95089.45;1787032;80;20943;-69
2022/04/22 06:20:26;;;;;;;74.10;36.63;;;;;;;4.06;72.60;95089.90;1786881;80;21038;-69
2022/04/22 06:22:52;;;;;;;65.43;35.80;;;;;;;4.12;72.36;95083.34;1787093;80;20979;-69
2022/04/22 06:25:20;;;;;;;48.93;27.60;;;;;;;4.19;72.73;95081.61;1786783;80;20983;-69
2022/04/22 06:27:46;;;;;;;40.10;22.13;;;;;;;4.29;73.12;95088.98;1786963;80;20975;-69
2022/04/22 06:30:21;;;;;;;34.53;20.07;;;;;;;4.38;73.10;95096.77;1786782;80;21086;-69
2022/04/22 06:32:51;;;;;;;24.00;16.00;;;;;;;4.47;73.02;95091.53;1795136;80;20979;-69
2022/04/22 06:35:19;;;;;;;12.93;8.77;;;;;;;4.59;72.74;95092.39;1795418;80;21047;-69
2022/04/22 06:37:51;;;;;;;12.57;8.77;;;;;;;4.66;72.85;95091.05;1795331;80;21006;-69
2022/04/22 06:45:54;;;;;;;13.20;9.03;;;;;;;4.92;71.83;95075.23;1795483;80;21001;-70
2022/04/22 06:48:30;;;;;;;15.87;10.17;;;;;;;4.99;71.01;95074.78;1795130;80;21022;-70
2022/04/22 06:50:57;;;;;;;52.10;31.47;;;;;;;5.03;71.15;95080.41;1794941;80;21007;-70
2022/04/22 06:53:25;;;;;;;28.73;17.83;;;;;;;5.06;70.77;95080.82;1795388;80;21461;-70
2022/04/22 06:55:53;;;;;;;148.03;71.77;;;;;;;5.13;70.24;95080.78;1795255;80;21492;-70
2022/04/22 06:58:22;;;;;;;141.97;69.00;;;;;;;5.11;69.58;95080.36;1795661;80;20998;-69
2022/04/22 07:00:49;;;;;;;148.83;67.33;;;;;;;5.08;69.61;95082.55;1795041;80;21090;-69
2022/04/22 07:03:17;;;;;;;45.90;25.80;;;;;;;5.08;69.92;95076.02;1795491;80;20979;-69
2022/04/22 07:05:47;;;;;;;55.83;25.33;;;;;;;5.10;70.33;95084.72;1795572;80;21524;-69
2022/04/22 07:08:17;;;;;;;58.47;30.43;;;;;;;5.08;69.85;95083.86;1795419;80;21496;-69
2022/04/22 07:10:46;;;;;;;57.70;33.40;;;;;;;5.05;69.98;95086.94;1795450;80;20971;-69
2022/04/22 07:13:17;;;;;;;48.90;27.93;;;;;;;5.09;69.85;95083.00;1795608;80;21492;-69
2022/04/22 07:15:49;;;;;;;38.33;23.10;;;;;;;5.15;69.92;95071.63;1795429;80;21479;-69
2022/04/22 07:18:17;;;;;;;38.43;22.80;;;;;;;5.18;69.49;95084.67;1795611;80;20975;-69
2022/04/22 07:20:45;;;;;;;46.10;27.77;;;;;;;5.22;69.27;95082.48;1795445;80;20990;-69
2022/04/22 07:23:14;;;;;;;49.53;28.57;;;;;;;5.26;69.40;95075.03;1795108;80;21041;-69
2022/04/22 07:25:46;;;;;;;39.13;23.70;;;;;;;5.30;69.60;95074.14;1795567;80;20995;-70
2022/04/22 07:28:14;;;;;;;27.52;17.15;;;;;;;5.32;68.25;95083.30;1795843;80;21038;-70
2022/04/22 07:30:46;;;;;;;42.23;25.07;;;;;;;5.40;68.39;95083.66;1795288;80;21006;-70
2022/04/22 07:33:11;;;;;;;22.77;13.33;;;;;;;5.49;68.00;95085.33;1794319;80;21495;-70
2022/04/22 07:35:39;;;;;;;29.70;20.97;;;;;;;5.49;66.37;95086.64;1795444;80;20998;-70
2022/04/22 07:38:10;;;;;;;22.90;16.90;;;;;;;5.54;67.16;95085.30;1795281;80;21513;-70
2022/04/22 07:40:40;;;;;;;24.03;17.53;;;;;;;5.60;67.89;95093.13;1795265;80;21018;-70
2022/04/22 07:48:38;;;;;;;26.13;18.57;;;;;;;5.71;67.68;95081.26;1795496;80;21444;-69
2022/04/22 07:51:05;;;;;;;34.00;22.57;;;;;;;5.73;67.77;95075.13;1795390;80;21002;-69
2022/04/22 07:53:32;;;;;;;37.50;24.10;;;;;;;5.80;67.99;95070.72;1795675;80;21006;-69
2022/04/22 07:55:59;;;;;;;34.77;22.53;;;;;;;5.87;67.97;95065.83;1795465;80;21042;-69
2022/04/22 07:58:26;;;;;;;25.47;18.93;;;;;;;5.93;67.56;95068.41;1795650;80;21010;-69
2022/04/22 08:00:52;;;;;;;26.20;17.60;;;;;;;6.01;66.97;95069.69;1795444;80;21564;-69
2022/04/22 08:03:18;;;;;;;43.37;23.10;;;;;;;6.05;65.68;95063.09;1795620;80;21006;-68
2022/04/22 08:05:45;;;;;;;37.47;24.83;;;;;;;6.03;64.73;95064.86;1795442;80;21421;-69
2022/04/22 08:08:11;;;;;;;29.73;19.13;;;;;;;6.11;64.93;95070.47;1795200;80;21070;-69
2022/04/22 08:10:38;;;;;;;22.10;15.57;;;;;;;6.16;64.77;95069.53;1795592;80;20991;-69
2022/04/22 08:13:06;;;;;;;16.47;12.47;;;;;;;6.23;64.84;95069.04;1795426;80;21034;-70
2022/04/22 08:15:35;;;;;;;22.47;14.87;;;;;;;6.30;65.02;95070.72;1795508;80;21469;-70
2022/04/22 08:18:03;;;;;;;13.03;9.70;;;;;;;6.40;64.66;95068.42;1794087;80;21086;-70
2022/04/22 08:20:32;;;;;;;9.40;8.23;;;;;;;6.49;63.93;95062.20;1795380;80;21061;-70
2022/04/22 08:23:01;;;;;;;9.20;8.03;;;;;;;6.62;64.59;95054.61;1795530;80;21010;-70
2022/04/22 08:25:28;;;;;;;10.33;7.97;;;;;;;6.73;64.16;95051.88;1794831;80;21038;-69
2022/04/22 08:27:55;;;;;;;10.80;7.43;;;;;;;6.84;64.04;95051.28;1795417;80;21030;-69
2022/04/22 08:30:22;;;;;;;10.50;9.27;;;;;;;6.97;64.63;95049.81;1795530;80;21022;-69
2022/04/22 08:32:49;;;;;;;13.10;9.70;;;;;;;7.03;64.17;95045.36;1794999;80;21583;-69
2022/04/22 08:35:16;;;;;;;10.13;9.03;;;;;;;7.15;64.57;95043.85;1795516;80;20971;-69
2022/04/22 08:37:45;;;;;;;12.27;9.03;;;;;;;7.26;64.44;95041.09;1795620;80;20947;-69
2022/04/22 08:40:13;;;;;;;11.30;8.80;;;;;;;7.32;64.42;95044.94;1795203;80;21022;-69
2022/04/22 08:42:43;;;;;;;12.13;8.27;;;;;;;7.36;63.29;95045.77;1795556;80;21468;-69
2022/04/22 08:45:11;;;;;;;11.57;8.57;;;;;;;7.42;63.22;95046.98;1795418;80;20979;-69
2022/04/22 08:50:30;;;;;;;11.17;8.50;;;;;;;7.36;61.50;95049.26;1795476;80;21435;-69
2022/04/22 08:53:05;;;;;;;10.18;8.45;;;;;;;7.23;61.13;95041.16;1795625;80;20983;-69
2022/04/22 08:55:33;;;;;;;10.30;7.93;;;;;;;7.26;62.45;95040.24;1795539;80;21524;-69
2022/04/22 08:58:05;;;;;;;12.73;10.53;;;;;;;7.22;61.85;95039.85;1764514;80;20951;-69
2022/04/22 09:00:36;;;;;;;9.07;7.20;;;;;;;7.25;61.65;95043.28;1795163;80;21050;-69
2022/04/22 09:03:03;;;;;;;8.48;7.40;;;;;;;7.26;61.76;95032.37;1795408;80;21515;-70
2022/04/22 09:05:34;;;;;;;8.90;7.30;;;;;;;7.29;61.38;95028.38;1795582;80;21003;-69
2022/04/22 09:08:02;;;;;;;9.80;7.53;;;;;;;7.25;62.13;95024.91;1795601;80;21413;-70
2022/04/22 09:10:28;;;;;;;12.17;8.93;;;;;;;7.32;61.92;95021.31;1795358;80;21487;-70
2022/04/22 09:12:57;;;;;;;10.17;8.10;;;;;;;7.42;62.60;95018.56;1795354;80;21019;-69
2022/04/22 09:15:28;;;;;;;11.83;9.37;;;;;;;7.57;62.77;95008.67;1795323;80;20995;-69
2022/04/22 09:18:00;;;;;;;21.07;14.97;;;;;;;7.76;62.40;95017.13;1794586;80;21447;-69
2022/04/22 09:20:32;;;;;;;19.80;15.37;;;;;;;7.96;60.76;95027.29;1790645;80;21480;-69
2022/04/22 09:22:59;;;;;;;15.83;11.30;;;;;;;8.21;60.56;95022.45;1795212;80;20974;-69
2022/04/22 09:25:26;;;;;;;15.40;12.20;;;;;;;8.46;61.13;95008.86;1795074;80;21050;-69
2022/04/22 09:27:57;;;;;;;9.73;8.07;;;;;;;8.74;60.62;94996.00;1795333;80;21473;-69
2022/04/22 09:30:25;;;;;;;10.20;8.23;;;;;;;9.19;61.11;94996.36;1795143;80;21488;-69
2022/04/22 09:32:52;;;;;;;10.07;9.00;;;;;;;9.36;59.48;94997.29;1795300;80;21017;-68
2022/04/22 09:35:20;;;;;;;9.87;8.30;;;;;;;9.49;59.02;94992.14;1795004;80;21114;-68
2022/04/22 09:43:45;;;;;;;9.73;8.30;;;;;;;9.83;57.49;94980.33;1795344;80;21531;-69
2022/04/22 09:46:32;;;;;;;11.53;10.07;;;;;;;9.75;55.81;94974.37;1795357;80;20994;-69
2022/04/22 09:49:00;;;;;;;11.07;9.87;;;;;;;9.92;57.85;94981.84;1795476;80;20975;-70
2022/04/22 09:51:30;;;;;;;9.53;8.53;;;;;;;10.08;58.35;94983.63;1795403;80;20994;-70
2022/04/22 09:54:09;;;;;;;11.63;9.20;;;;;;;10.25;57.54;94975.27;1795111;80;21013;-70
2022/04/22 09:56:38;;;;;;;12.67;9.83;;;;;;;10.39;56.42;94977.13;1795325;80;21038;-69
2022/04/22 09:59:25;;;;;;;11.23;9.70;;;;;;;10.31;54.02;94965.92;1795481;80;20990;-69
2022/04/22 10:01:53;;;;;;;11.30;9.20;;;;;;;10.49;55.94;94964.55;1795376;80;20983;-69
2022/04/22 10:04:22;;;;;;;10.87;9.17;;;;;;;10.78;56.26;94962.36;1795220;80;21017;-69
2022/04/22 10:06:51;;;;;;;12.33;9.57;;;;;;;11.32;57.10;94948.41;1795488;80;21049;-69
2022/04/22 10:09:18;;;;;;;10.98;9.45;;;;;;;11.81;56.01;94945.45;1795496;80;21469;-69
2022/04/22 10:11:47;;;;;;;10.90;9.55;;;;;;;11.84;53.79;94939.20;1789788;80;21559;-69
2022/04/22 10:14:22;;;;;;;10.20;9.20;;;;;;;11.85;52.60;94935.66;1795503;80;20939;-69
2022/04/22 10:16:50;;;;;;;10.28;8.98;;;;;;;11.79;52.82;94945.10;1794528;80;20979;-69
2022/04/22 10:19:17;;;;;;;12.28;9.95;;;;;;;11.78;52.47;94944.25;1795312;80;21010;-69
2022/04/22 10:21:46;;;;;;;14.47;11.00;;;;;;;11.83;52.33;94938.81;1795062;80;21070;-69
2022/04/22 10:24:14;;;;;;;11.95;9.75;;;;;;;11.75;52.58;94939.53;1795407;80;21102;-69
2022/04/22 10:26:41;;;;;;;10.95;9.78;;;;;;;11.75;53.08;94936.42;1795353;80;21029;-69
2022/04/22 10:29:09;;;;;;;10.90;9.80;;;;;;;11.79;52.65;94928.81;1795444;80;21021;-69
2022/04/22 10:31:36;;;;;;;11.55;10.35;;;;;;;12.23;53.51;94925.09;1794421;80;21034;-69
2022/04/22 10:34:09;;;;;;;11.38;9.75;;;;;;;12.64;53.27;94920.53;1787112;80;21011;-69
2022/04/22 10:36:36;;;;;;;11.30;10.13;;;;;;;12.93;51.97;94920.77;1787204;80;21041;-69
2022/04/22 10:39:03;;;;;;;13.88;11.45;;;;;;;13.15;50.35;94909.73;1786768;80;21023;-69
2022/04/22 10:41:34;;;;;;;13.65;10.03;;;;;;;13.26;50.00;94907.13;1787253;80;20987;-70
2022/04/22 10:49:42;;;;;;;14.75;10.68;;;;;;;13.66;49.52;94892.25;1786903;80;21010;-70
2022/04/22 10:52:17;;;;;;;13.70;12.05;;;;;;;13.88;50.00;94890.89;1787306;80;21049;-69
2022/04/22 10:54:55;;;;;;;11.95;10.20;;;;;;;14.04;49.70;94874.73;1787280;80;21019;-69
2022/04/22 10:57:27;;;;;;;12.40;10.55;;;;;;;14.02;49.08;94875.25;1771617;80;21011;-69
2022/04/22 11:00:14;;;;;;;12.55;11.03;;;;;;;14.13;49.42;94875.62;1787262;80;21058;-69
2022/04/22 11:02:43;;;;;;;12.30;10.63;;;;;;;14.28;48.06;94860.83;1787264;80;21474;-67
2022/04/22 11:05:30;;;;;;;12.93;10.53;;;;;;;14.42;47.37;94858.42;1787042;80;21082;-66
2022/04/22 11:07:57;;;;;;;12.75;11.03;;;;;;;14.61;48.72;94862.44;1786827;80;21015;-67
2022/04/22 11:10:48;;;;;;;13.50;11.45;;;;;;;14.77;48.25;94857.30;1787100;80;21118;-67
2022/04/22 11:13:39;;;;;;;15.35;12.78;;;;;;;14.86;46.79;94861.31;1787233;80;21023;-67
2022/04/22 11:16:33;;;;;;;14.53;11.00;;;;;;;14.92;47.59;94857.91;1787343;80;21038;-67
2022/04/22 11:19:20;;;;;;;14.55;12.65;;;;;;;14.99;47.07;94846.50;1785808;80;21078;-67
2022/04/22 11:21:58;;;;;;;13.18;11.73;;;;;;;15.03;47.34;94848.09;1787744;80;21034;-67
2022/04/22 11:24:36;;;;;;;15.18;12.80;;;;;;;15.24;46.38;94847.98;1787139;80;21529;-68
2022/04/22 11:27:11;;;;;;;13.62;12.13;;;;;;;15.33;47.00;94852.39;1785646;80;21129;-68
2022/04/22 11:29:43;;;;;;;16.93;14.10;;;;;;;15.66;47.31;94844.14;1787178;80;21508;-68
2022/04/22 11:32:20;;;;;;;23.22;19.45;;;;;;;15.53;45.00;94840.77;1787037;80;21508;-67
2022/04/22 11:35:11;;;;;;;14.07;12.58;;;;;;;15.58;45.78;94836.56;1786666;80;21866;-67
2022/04/22 11:37:38;;;;;;;14.28;12.78;;;;;;;15.52;45.96;94836.84;1786878;80;21043;-67
2022/04/22 11:40:08;;;;;;;16.67;13.00;;;;;;;15.56;45.08;94828.64;1786939;80;21026;-67
2022/04/22 11:42:44;;;;;;;19.67;12.58;;;;;;;16.22;45.10;94821.27;1787054;80;21007;-67
2022/04/22 11:45:16;;;;;;;16.70;11.80;;;;;;;16.95;44.73;94806.73;1787222;80;20995;-67
2022/04/22 11:47:43;;;;;;;15.55;13.45;;;;;;;16.95;44.73;94806.73;1780419;80;20999;-67
2022/04/22 11:50:22;;;;;;;13.45;12.00;;;;;;;17.64;43.83;94801.42;1786958;80;21445;-67
2022/04/22 11:52:56;;;;;;;15.80;13.65;;;;;;;17.58;40.86;94789.80;1787116;80;20995;-67
2022/04/22 11:55:23;;;;;;;15.65;12.25;;;;;;;17.34;40.77;94794.73;1787136;80;21075;-68
2022/04/22 11:57:50;;;;;;;15.83;14.10;;;;;;;17.19;42.50;94797.84;1786969;80;21042;-68
2022/04/22 12:05:49;;;;;;;15.08;12.33;;;;;;;16.57;44.36;94784.38;1787105;80;21022;-68
2022/04/22 12:08:17;;;;;;;14.23;11.33;;;;;;;16.57;44.31;94778.58;1787188;80;20971;-68
2022/04/22 12:10:46;;;;;;;14.30;11.48;;;;;;;16.55;44.19;94770.29;1787095;80;21030;-68
2022/04/22 12:13:14;;;;;;;18.35;12.25;;;;;;;16.37;43.77;94774.34;1787087;80;20983;-68
2022/04/22 12:15:48;;;;;;;12.35;10.78;;;;;;;16.49;43.45;94769.31;1787402;80;20983;-68
2022/04/22 12:18:33;;;;;;;15.55;11.28;;;;;;;16.65;44.32;94765.69;1787031;80;21027;-68
2022/04/22 12:21:01;;;;;;;10.48;9.40;;;;;;;16.79;43.18;94752.98;1786969;80;21019;-68
2022/04/22 12:23:37;;;;;;;13.08;9.20;;;;;;;16.84;43.32;94746.06;1787169;80;21002;-67
2022/04/22 12:26:06;;;;;;;10.95;9.60;;;;;;;16.66;43.27;94743.94;1787175;80;21010;-67
2022/04/22 12:28:33;;;;;;;12.47;9.70;;;;;;;16.44;43.82;94737.61;1787291;80;20955;-67
2022/04/22 12:30:59;;;;;;;13.78;9.38;;;;;;;16.56;44.45;94730.75;1786843;80;20968;-66
2022/04/22 12:33:26;;;;;;;12.50;9.58;;;;;;;16.48;44.52;94733.84;1792368;80;21457;-67
2022/04/22 12:36:07;;;;;;;10.43;8.33;;;;;;;16.51;43.84;94728.34;1795591;80;20994;-67